sensor_id;sensor_type;location;lat;lon;timestamp;P1;durP1;ratioP1;P2;durP2;ratioP2
22924;SDS011;11628;51.072;3.712;2022-11-20T00:00:28;95.38;;;45.38;;
22924;SDS011;11628;51.072;3.712;2022-11-20T00:02:54;100.32;;;47.00;;
22924;SDS011;11628;51.072;3.712;2022-11-20T00:05:20;90.57;;;44.13;;
22924;SDS011;11628;51.072;3.712;2022-11-20T00:07:46;94.50;;;46.97;;
22924;SDS011;11628;51.072;3.712;2022-11-20T00:10:11;102.75;;;47.10;;
22924;SDS011;11628;51.072;3.712;2022-11-20T00:12:37;96.55;;;47.08;;
22924;SDS011;11628;51.072;3.712;2022-11-20T00:15:03;99.80;;;46.20;;
22924;SDS011;11628;51.072;3.712;2022-11-20T00:17:29;93.97;;;46.67;;
22924;SDS011;11628;51.072;3.712;2022-11-20T00:19:55;90.22;;;44.40;;
22924;SDS011;11628;51.072;3.712;2022-11-20T00:22:20;97.78;;;46.72;;
22924;SDS011;11628;51.072;3.712;2022-11-20T00:24:46;93.05;;;44.47;;
22924;SDS011;11628;51.072;3.712;2022-11-20T00:27:12;96.70;;;47.40;;
22924;SDS011;11628;51.072;3.712;2022-11-20T00:29:38;97.63;;;45.47;;
22924;SDS011;11628;51.072;3.712;2022-11-20T00:32:04;94.15;;;45.08;;
22924;SDS011;11628;51.072;3.712;2022-11-20T00:34:29;96.50;;;45.33;;
22924;SDS011;11628;51.072;3.712;2022-11-20T00:36:55;93.45;;;44.63;;
22924;SDS011;11628;51.072;3.712;2022-11-20T00:39:21;95.40;;;45.20;;
22924;SDS011;11628;51.072;3.712;2022-11-20T00:41:46;91.50;;;44.08;;
22924;SDS011;11628;51.072;3.712;2022-11-20T00:44:12;86.55;;;43.95;;
22924;SDS011;11628;51.072;3.712;2022-11-20T00:46:38;89.30;;;43.65;;
22924;SDS011;11628;51.072;3.712;2022-11-20T00:49:03;88.88;;;44.88;;
22924;SDS011;11628;51.072;3.712;2022-11-20T00:51:30;86.70;;;43.90;;
22924;SDS011;11628;51.072;3.712;2022-11-20T00:53:57;93.60;;;45.75;;
22924;SDS011;11628;51.072;3.712;2022-11-20T00:56:24;92.68;;;45.42;;
22924;SDS011;11628;51.072;3.712;2022-11-20T00:58:50;87.43;;;43.75;;
22924;SDS011;11628;51.072;3.712;2022-11-20T01:03:42;85.25;;;42.47;;
22924;SDS011;11628;51.072;3.712;2022-11-20T01:08:43;85.22;;;43.70;;
22924;SDS011;11628;51.072;3.712;2022-11-20T01:11:15;85.68;;;41.65;;
22924;SDS011;11628;51.072;3.712;2022-11-20T01:13:43;79.03;;;41.22;;
22924;SDS011;11628;51.072;3.712;2022-11-20T01:18:53;88.22;;;42.35;;
22924;SDS011;11628;51.072;3.712;2022-11-20T01:21:21;77.25;;;41.85;;
22924;SDS011;11628;51.072;3.712;2022-11-20T01:23:49;77.13;;;40.22;;
22924;SDS011;11628;51.072;3.712;2022-11-20T01:26:16;75.90;;;40.08;;
22924;SDS011;11628;51.072;3.712;2022-11-20T01:28:47;75.93;;;39.35;;
22924;SDS011;11628;51.072;3.712;2022-11-20T01:31:18;77.97;;;39.13;;
22924;SDS011;11628;51.072;3.712;2022-11-20T01:33:50;79.43;;;40.90;;
22924;SDS011;11628;51.072;3.712;2022-11-20T01:36:18;75.30;;;39.38;;
22924;SDS011;11628;51.072;3.712;2022-11-20T01:38:45;79.15;;;38.78;;
22924;SDS011;11628;51.072;3.712;2022-11-20T01:41:11;71.55;;;36.55;;
22924;SDS011;11628;51.072;3.712;2022-11-20T01:44:02;74.47;;;39.47;;
22924;SDS011;11628;51.072;3.712;2022-11-20T01:46:28;69.55;;;38.60;;
22924;SDS011;11628;51.072;3.712;2022-11-20T01:51:40;77.10;;;38.47;;
22924;SDS011;11628;51.072;3.712;2022-11-20T01:54:12;76.20;;;40.63;;
22924;SDS011;11628;51.072;3.712;2022-11-20T01:56:42;71.40;;;39.70;;
22924;SDS011;11628;51.072;3.712;2022-11-20T01:59:10;73.70;;;39.33;;
22924;SDS011;11628;51.072;3.712;2022-11-20T02:01:39;71.70;;;37.97;;
22924;SDS011;11628;51.072;3.712;2022-11-20T02:04:05;70.38;;;38.92;;
22924;SDS011;11628;51.072;3.712;2022-11-20T02:07:15;80.53;;;39.53;;
22924;SDS011;11628;51.072;3.712;2022-11-20T02:09:24;79.47;;;39.70;;
22924;SDS011;11628;51.072;3.712;2022-11-20T02:11:50;77.38;;;40.50;;
22924;SDS011;11628;51.072;3.712;2022-11-20T02:14:16;76.82;;;40.63;;
22924;SDS011;11628;51.072;3.712;2022-11-20T02:16:46;77.10;;;39.72;;
22924;SDS011;11628;51.072;3.712;2022-11-20T02:19:17;73.82;;;38.28;;
22924;SDS011;11628;51.072;3.712;2022-11-20T02:24:27;75.28;;;39.60;;
22924;SDS011;11628;51.072;3.712;2022-11-20T02:26:54;78.55;;;39.95;;
22924;SDS011;11628;51.072;3.712;2022-11-20T02:29:32;80.03;;;39.63;;
22924;SDS011;11628;51.072;3.712;2022-11-20T02:32:20;73.60;;;38.83;;
22924;SDS011;11628;51.072;3.712;2022-11-20T02:34:51;80.90;;;40.72;;
22924;SDS011;11628;51.072;3.712;2022-11-20T02:37:17;77.63;;;40.78;;
22924;SDS011;11628;51.072;3.712;2022-11-20T02:39:44;78.15;;;39.13;;
22924;SDS011;11628;51.072;3.712;2022-11-20T02:42:12;80.88;;;39.35;;
22924;SDS011;11628;51.072;3.712;2022-11-20T02:44:38;80.00;;;40.05;;
22924;SDS011;11628;51.072;3.712;2022-11-20T02:47:04;72.65;;;37.97;;
22924;SDS011;11628;51.072;3.712;2022-11-20T02:49:30;79.45;;;39.80;;
22924;SDS011;11628;51.072;3.712;2022-11-20T02:51:55;82.18;;;41.72;;
22924;SDS011;11628;51.072;3.712;2022-11-20T02:54:21;81.25;;;40.95;;
22924;SDS011;11628;51.072;3.712;2022-11-20T02:56:47;75.57;;;40.25;;
22924;SDS011;11628;51.072;3.712;2022-11-20T02:59:14;84.32;;;41.58;;
22924;SDS011;11628;51.072;3.712;2022-11-20T03:01:40;76.68;;;39.40;;
22924;SDS011;11628;51.072;3.712;2022-11-20T03:04:05;79.10;;;40.30;;
22924;SDS011;11628;51.072;3.712;2022-11-20T03:06:32;82.25;;;42.53;;
22924;SDS011;11628;51.072;3.712;2022-11-20T03:08:58;79.20;;;40.55;;
22924;SDS011;11628;51.072;3.712;2022-11-20T03:11:23;78.40;;;39.40;;
22924;SDS011;11628;51.072;3.712;2022-11-20T03:13:49;78.55;;;39.25;;
22924;SDS011;11628;51.072;3.712;2022-11-20T03:16:16;77.10;;;39.30;;
22924;SDS011;11628;51.072;3.712;2022-11-20T03:18:43;76.22;;;40.00;;
22924;SDS011;11628;51.072;3.712;2022-11-20T03:21:10;74.95;;;38.78;;
22924;SDS011;11628;51.072;3.712;2022-11-20T03:23:37;74.45;;;39.92;;
22924;SDS011;11628;51.072;3.712;2022-11-20T03:26:12;77.80;;;40.17;;
22924;SDS011;11628;51.072;3.712;2022-11-20T03:28:42;81.75;;;40.90;;
22924;SDS011;11628;51.072;3.712;2022-11-20T03:31:13;75.03;;;38.92;;
22924;SDS011;11628;51.072;3.712;2022-11-20T03:33:39;78.53;;;37.60;;
22924;SDS011;11628;51.072;3.712;2022-11-20T03:36:07;71.35;;;34.95;;
22924;SDS011;11628;51.072;3.712;2022-11-20T03:38:35;71.57;;;35.60;;
22924;SDS011;11628;51.072;3.712;2022-11-20T03:41:02;65.30;;;35.47;;
22924;SDS011;11628;51.072;3.712;2022-11-20T03:43:29;68.35;;;37.13;;
22924;SDS011;11628;51.072;3.712;2022-11-20T03:45:56;67.15;;;35.88;;
22924;SDS011;11628;51.072;3.712;2022-11-20T03:48:22;70.57;;;36.75;;
22924;SDS011;11628;51.072;3.712;2022-11-20T03:50:48;67.13;;;35.47;;
22924;SDS011;11628;51.072;3.712;2022-11-20T03:53:14;68.78;;;36.50;;
22924;SDS011;11628;51.072;3.712;2022-11-20T03:55:40;73.03;;;38.15;;
22924;SDS011;11628;51.072;3.712;2022-11-20T03:58:06;67.57;;;34.55;;
22924;SDS011;11628;51.072;3.712;2022-11-20T04:00:32;66.20;;;36.33;;
22924;SDS011;11628;51.072;3.712;2022-11-20T04:02:58;67.72;;;34.97;;
22924;SDS011;11628;51.072;3.712;2022-11-20T04:05:25;66.95;;;35.25;;
22924;SDS011;11628;51.072;3.712;2022-11-20T04:07:51;73.63;;;36.95;;
22924;SDS011;11628;51.072;3.712;2022-11-20T04:10:17;65.30;;;35.92;;
22924;SDS011;11628;51.072;3.712;2022-11-20T04:12:43;68.65;;;37.05;;
22924;SDS011;11628;51.072;3.712;2022-11-20T04:15:09;63.17;;;34.33;;
22924;SDS011;11628;51.072;3.712;2022-11-20T04:17:34;64.82;;;34.95;;
22924;SDS011;11628;51.072;3.712;2022-11-20T04:20:00;70.03;;;36.13;;
22924;SDS011;11628;51.072;3.712;2022-11-20T04:22:27;63.38;;;35.50;;
22924;SDS011;11628;51.072;3.712;2022-11-20T04:24:52;60.75;;;35.08;;
22924;SDS011;11628;51.072;3.712;2022-11-20T04:27:18;64.28;;;34.78;;
22924;SDS011;11628;51.072;3.712;2022-11-20T04:29:44;62.72;;;34.30;;
22924;SDS011;11628;51.072;3.712;2022-11-20T04:32:10;62.22;;;32.65;;
22924;SDS011;11628;51.072;3.712;2022-11-20T04:34:35;65.85;;;35.60;;
22924;SDS011;11628;51.072;3.712;2022-11-20T04:37:01;63.10;;;34.13;;
22924;SDS011;11628;51.072;3.712;2022-11-20T04:39:27;62.50;;;35.35;;
22924;SDS011;11628;51.072;3.712;2022-11-20T04:41:52;61.95;;;35.42;;
22924;SDS011;11628;51.072;3.712;2022-11-20T04:44:38;65.80;;;35.92;;
22924;SDS011;11628;51.072;3.712;2022-11-20T04:47:03;61.15;;;34.22;;
22924;SDS011;11628;51.072;3.712;2022-11-20T04:49:29;61.10;;;34.03;;
22924;SDS011;11628;51.072;3.712;2022-11-20T04:51:56;64.00;;;33.50;;
22924;SDS011;11628;51.072;3.712;2022-11-20T04:54:22;64.13;;;34.85;;
22924;SDS011;11628;51.072;3.712;2022-11-20T04:56:48;64.70;;;36.05;;
22924;SDS011;11628;51.072;3.712;2022-11-20T04:59:14;66.38;;;35.95;;
22924;SDS011;11628;51.072;3.712;2022-11-20T05:01:40;72.20;;;36.55;;
22924;SDS011;11628;51.072;3.712;2022-11-20T05:04:06;69.95;;;35.78;;
22924;SDS011;11628;51.072;3.712;2022-11-20T05:06:32;65.53;;;36.58;;
22924;SDS011;11628;51.072;3.712;2022-11-20T05:08:58;72.95;;;36.17;;
22924;SDS011;11628;51.072;3.712;2022-11-20T05:11:24;66.15;;;36.47;;
22924;SDS011;11628;51.072;3.712;2022-11-20T05:13:50;71.03;;;36.75;;
22924;SDS011;11628;51.072;3.712;2022-11-20T05:16:19;70.22;;;37.67;;
22924;SDS011;11628;51.072;3.712;2022-11-20T05:18:46;72.22;;;36.85;;
22924;SDS011;11628;51.072;3.712;2022-11-20T05:21:12;73.63;;;38.25;;
22924;SDS011;11628;51.072;3.712;2022-11-20T05:23:39;73.03;;;35.90;;
22924;SDS011;11628;51.072;3.712;2022-11-20T05:26:06;74.63;;;37.15;;
22924;SDS011;11628;51.072;3.712;2022-11-20T05:28:33;72.90;;;35.90;;
22924;SDS011;11628;51.072;3.712;2022-11-20T05:31:09;80.88;;;38.60;;
22924;SDS011;11628;51.072;3.712;2022-11-20T05:33:39;82.00;;;37.47;;
22924;SDS011;11628;51.072;3.712;2022-11-20T05:36:05;81.80;;;39.05;;
22924;SDS011;11628;51.072;3.712;2022-11-20T05:38:31;82.53;;;38.15;;
22924;SDS011;11628;51.072;3.712;2022-11-20T05:41:07;82.55;;;38.45;;
22924;SDS011;11628;51.072;3.712;2022-11-20T05:43:36;80.93;;;37.83;;
22924;SDS011;11628;51.072;3.712;2022-11-20T05:46:03;89.90;;;40.38;;
22924;SDS011;11628;51.072;3.712;2022-11-20T05:48:30;81.32;;;38.90;;
22924;SDS011;11628;51.072;3.712;2022-11-20T05:50:57;87.63;;;37.97;;
22924;SDS011;11628;51.072;3.712;2022-11-20T05:53:25;85.00;;;37.92;;
22924;SDS011;11628;51.072;3.712;2022-11-20T05:55:58;88.05;;;38.63;;
22924;SDS011;11628;51.072;3.712;2022-11-20T05:58:25;80.68;;;36.47;;
22924;SDS011;11628;51.072;3.712;2022-11-20T06:00:51;85.78;;;36.95;;
22924;SDS011;11628;51.072;3.712;2022-11-20T06:03:17;84.80;;;37.42;;
22924;SDS011;11628;51.072;3.712;2022-11-20T06:05:43;83.95;;;37.03;;
22924;SDS011;11628;51.072;3.712;2022-11-20T06:08:08;83.70;;;36.17;;
22924;SDS011;11628;51.072;3.712;2022-11-20T06:10:34;82.05;;;37.83;;
22924;SDS011;11628;51.072;3.712;2022-11-20T06:12:59;88.45;;;38.75;;
22924;SDS011;11628;51.072;3.712;2022-11-20T06:15:25;87.25;;;39.17;;
22924;SDS011;11628;51.072;3.712;2022-11-20T06:17:52;84.13;;;37.85;;
22924;SDS011;11628;51.072;3.712;2022-11-20T06:20:18;85.72;;;37.97;;
22924;SDS011;11628;51.072;3.712;2022-11-20T06:22:44;87.55;;;37.38;;
22924;SDS011;11628;51.072;3.712;2022-11-20T06:25:10;83.38;;;37.22;;
22924;SDS011;11628;51.072;3.712;2022-11-20T06:27:36;83.28;;;37.92;;
22924;SDS011;11628;51.072;3.712;2022-11-20T06:30:02;81.32;;;37.40;;
22924;SDS011;11628;51.072;3.712;2022-11-20T06:32:28;84.75;;;37.78;;
22924;SDS011;11628;51.072;3.712;2022-11-20T06:34:54;85.78;;;37.83;;
22924;SDS011;11628;51.072;3.712;2022-11-20T06:37:20;78.85;;;36.63;;
22924;SDS011;11628;51.072;3.712;2022-11-20T06:39:45;77.10;;;35.53;;
22924;SDS011;11628;51.072;3.712;2022-11-20T06:42:11;78.38;;;37.25;;
22924;SDS011;11628;51.072;3.712;2022-11-20T06:44:37;71.82;;;33.05;;
22924;SDS011;11628;51.072;3.712;2022-11-20T06:47:02;81.13;;;36.05;;
22924;SDS011;11628;51.072;3.712;2022-11-20T06:49:28;77.47;;;35.65;;
22924;SDS011;11628;51.072;3.712;2022-11-20T06:51:54;75.70;;;34.50;;
22924;SDS011;11628;51.072;3.712;2022-11-20T06:54:19;73.65;;;34.05;;
22924;SDS011;11628;51.072;3.712;2022-11-20T06:56:48;73.45;;;34.35;;
22924;SDS011;11628;51.072;3.712;2022-11-20T06:59:14;72.85;;;32.00;;
22924;SDS011;11628;51.072;3.712;2022-11-20T07:01:40;74.60;;;32.83;;
22924;SDS011;11628;51.072;3.712;2022-11-20T07:04:08;79.57;;;34.90;;
22924;SDS011;11628;51.072;3.712;2022-11-20T07:06:34;74.32;;;33.28;;
22924;SDS011;11628;51.072;3.712;2022-11-20T07:09:00;77.95;;;35.10;;
22924;SDS011;11628;51.072;3.712;2022-11-20T07:11:26;85.75;;;35.70;;
22924;SDS011;11628;51.072;3.712;2022-11-20T07:13:52;69.95;;;32.63;;
22924;SDS011;11628;51.072;3.712;2022-11-20T07:16:17;66.43;;;31.02;;
22924;SDS011;11628;51.072;3.712;2022-11-20T07:18:43;68.25;;;30.08;;
22924;SDS011;11628;51.072;3.712;2022-11-20T07:21:09;68.32;;;32.55;;
22924;SDS011;11628;51.072;3.712;2022-11-20T07:23:36;79.00;;;34.80;;
22924;SDS011;11628;51.072;3.712;2022-11-20T07:26:05;68.90;;;32.72;;
22924;SDS011;11628;51.072;3.712;2022-11-20T07:28:32;71.80;;;31.60;;
22924;SDS011;11628;51.072;3.712;2022-11-20T07:30:59;71.32;;;31.30;;
22924;SDS011;11628;51.072;3.712;2022-11-20T07:33:24;69.60;;;31.58;;
22924;SDS011;11628;51.072;3.712;2022-11-20T07:35:50;73.38;;;31.63;;
22924;SDS011;11628;51.072;3.712;2022-11-20T07:38:16;77.10;;;33.80;;
22924;SDS011;11628;51.072;3.712;2022-11-20T07:40:41;71.45;;;32.92;;
22924;SDS011;11628;51.072;3.712;2022-11-20T07:43:07;72.13;;;32.85;;
22924;SDS011;11628;51.072;3.712;2022-11-20T07:45:33;72.97;;;32.35;;
22924;SDS011;11628;51.072;3.712;2022-11-20T07:47:59;67.75;;;32.47;;
22924;SDS011;11628;51.072;3.712;2022-11-20T07:50:25;78.43;;;33.67;;
22924;SDS011;11628;51.072;3.712;2022-11-20T07:52:50;68.30;;;32.40;;
22924;SDS011;11628;51.072;3.712;2022-11-20T07:55:17;73.20;;;32.58;;
22924;SDS011;11628;51.072;3.712;2022-11-20T07:57:43;72.18;;;31.73;;
22924;SDS011;11628;51.072;3.712;2022-11-20T08:00:10;69.68;;;32.15;;
22924;SDS011;11628;51.072;3.712;2022-11-20T08:02:37;71.47;;;34.08;;
22924;SDS011;11628;51.072;3.712;2022-11-20T08:05:06;68.90;;;32.55;;
22924;SDS011;11628;51.072;3.712;2022-11-20T08:07:37;76.03;;;33.03;;
22924;SDS011;11628;51.072;3.712;2022-11-20T08:10:04;65.97;;;32.13;;
22924;SDS011;11628;51.072;3.712;2022-11-20T08:12:31;70.38;;;31.90;;
22924;SDS011;11628;51.072;3.712;2022-11-20T08:15:15;71.10;;;33.83;;
22924;SDS011;11628;51.072;3.712;2022-11-20T08:17:41;74.53;;;32.50;;
22924;SDS011;11628;51.072;3.712;2022-11-20T08:20:07;72.60;;;33.03;;
22924;SDS011;11628;51.072;3.712;2022-11-20T08:22:33;62.92;;;29.65;;
22924;SDS011;11628;51.072;3.712;2022-11-20T08:24:59;72.75;;;31.05;;
22924;SDS011;11628;51.072;3.712;2022-11-20T08:27:25;68.85;;;30.63;;
22924;SDS011;11628;51.072;3.712;2022-11-20T08:29:51;68.63;;;31.70;;
22924;SDS011;11628;51.072;3.712;2022-11-20T08:32:16;69.15;;;30.30;;
22924;SDS011;11628;51.072;3.712;2022-11-20T08:34:42;72.22;;;31.55;;
22924;SDS011;11628;51.072;3.712;2022-11-20T08:37:08;77.13;;;33.17;;
22924;SDS011;11628;51.072;3.712;2022-11-20T08:39:33;75.45;;;33.13;;
22924;SDS011;11628;51.072;3.712;2022-11-20T08:41:59;70.75;;;31.33;;
22924;SDS011;11628;51.072;3.712;2022-11-20T08:44:25;71.30;;;30.83;;
22924;SDS011;11628;51.072;3.712;2022-11-20T08:46:50;72.20;;;32.53;;
22924;SDS011;11628;51.072;3.712;2022-11-20T08:49:16;73.18;;;32.08;;
22924;SDS011;11628;51.072;3.712;2022-11-20T08:51:42;76.65;;;32.72;;
22924;SDS011;11628;51.072;3.712;2022-11-20T08:54:08;64.13;;;28.90;;
22924;SDS011;11628;51.072;3.712;2022-11-20T08:56:34;60.88;;;28.63;;
22924;SDS011;11628;51.072;3.712;2022-11-20T08:59:00;66.95;;;30.30;;
22924;SDS011;11628;51.072;3.712;2022-11-20T09:01:26;61.38;;;28.70;;
22924;SDS011;11628;51.072;3.712;2022-11-20T09:03:54;64.97;;;29.35;;
22924;SDS011;11628;51.072;3.712;2022-11-20T09:06:28;60.13;;;28.27;;
22924;SDS011;11628;51.072;3.712;2022-11-20T09:08:53;57.35;;;27.38;;
22924;SDS011;11628;51.072;3.712;2022-11-20T09:11:20;58.55;;;27.92;;
22924;SDS011;11628;51.072;3.712;2022-11-20T09:13:46;62.25;;;27.90;;
22924;SDS011;11628;51.072;3.712;2022-11-20T09:16:11;58.67;;;28.38;;
22924;SDS011;11628;51.072;3.712;2022-11-20T09:18:37;55.17;;;26.48;;
22924;SDS011;11628;51.072;3.712;2022-11-20T09:21:04;53.42;;;25.83;;
22924;SDS011;11628;51.072;3.712;2022-11-20T09:23:35;56.53;;;27.65;;
22924;SDS011;11628;51.072;3.712;2022-11-20T09:26:05;51.75;;;28.48;;
22924;SDS011;11628;51.072;3.712;2022-11-20T09:28:33;52.85;;;27.27;;
22924;SDS011;11628;51.072;3.712;2022-11-20T09:30:59;52.67;;;27.88;;
22924;SDS011;11628;51.072;3.712;2022-11-20T09:33:25;52.17;;;25.55;;
22924;SDS011;11628;51.072;3.712;2022-11-20T09:35:51;48.58;;;25.42;;
22924;SDS011;11628;51.072;3.712;2022-11-20T09:38:17;48.67;;;25.23;;
22924;SDS011;11628;51.072;3.712;2022-11-20T09:40:53;45.53;;;23.70;;
22924;SDS011;11628;51.072;3.712;2022-11-20T09:49:15;40.60;;;23.65;;
22924;SDS011;11628;51.072;3.712;2022-11-20T09:54:55;44.50;;;21.48;;
22924;SDS011;11628;51.072;3.712;2022-11-20T09:57:24;36.30;;;20.08;;
22924;SDS011;11628;51.072;3.712;2022-11-20T09:59:58;36.67;;;20.45;;
22924;SDS011;11628;51.072;3.712;2022-11-20T10:07:58;30.35;;;18.50;;
22924;SDS011;11628;51.072;3.712;2022-11-20T10:10:45;29.75;;;16.80;;
22924;SDS011;11628;51.072;3.712;2022-11-20T10:14:17;27.92;;;18.02;;
22924;SDS011;11628;51.072;3.712;2022-11-20T10:16:36;25.95;;;16.45;;
22924;SDS011;11628;51.072;3.712;2022-11-20T10:30:22;22.17;;;13.90;;
22924;SDS011;11628;51.072;3.712;2022-11-20T10:32:51;20.92;;;12.02;;
22924;SDS011;11628;51.072;3.712;2022-11-20T10:35:32;23.92;;;12.55;;
22924;SDS011;11628;51.072;3.712;2022-11-20T10:38:02;24.15;;;11.43;;
22924;SDS011;11628;51.072;3.712;2022-11-20T10:43:02;19.10;;;10.93;;
22924;SDS011;11628;51.072;3.712;2022-11-20T10:45:43;16.98;;;10.23;;
22924;SDS011;11628;51.072;3.712;2022-11-20T10:48:26;19.33;;;9.95;;
22924;SDS011;11628;51.072;3.712;2022-11-20T10:51:03;14.63;;;8.73;;
22924;SDS011;11628;51.072;3.712;2022-11-20T10:53:54;12.27;;;7.53;;
22924;SDS011;11628;51.072;3.712;2022-11-20T10:56:41;12.00;;;7.28;;
22924;SDS011;11628;51.072;3.712;2022-11-20T11:02:41;15.73;;;7.40;;
22924;SDS011;11628;51.072;3.712;2022-11-20T11:05:31;12.70;;;6.25;;
22924;SDS011;11628;51.072;3.712;2022-11-20T11:08:16;18.23;;;6.70;;
22924;SDS011;11628;51.072;3.712;2022-11-20T11:13:22;8.50;;;4.85;;
22924;SDS011;11628;51.072;3.712;2022-11-20T11:15:50;11.98;;;5.82;;
22924;SDS011;11628;51.072;3.712;2022-11-20T11:18:26;10.88;;;5.30;;
22924;SDS011;11628;51.072;3.712;2022-11-20T11:20:55;12.55;;;5.80;;
22924;SDS011;11628;51.072;3.712;2022-11-20T11:23:56;14.55;;;5.38;;
22924;SDS011;11628;51.072;3.712;2022-11-20T11:26:23;9.18;;;4.82;;
22924;SDS011;11628;51.072;3.712;2022-11-20T11:28:56;10.93;;;4.03;;
22924;SDS011;11628;51.072;3.712;2022-11-20T11:31:30;8.80;;;4.43;;
22924;SDS011;11628;51.072;3.712;2022-11-20T11:34:05;10.20;;;4.57;;
22924;SDS011;11628;51.072;3.712;2022-11-20T11:36:37;7.85;;;3.95;;
22924;SDS011;11628;51.072;3.712;2022-11-20T11:39:03;6.45;;;3.90;;
22924;SDS011;11628;51.072;3.712;2022-11-20T11:41:35;9.85;;;4.25;;
22924;SDS011;11628;51.072;3.712;2022-11-20T11:44:19;7.32;;;3.90;;
22924;SDS011;11628;51.072;3.712;2022-11-20T11:47:21;9.55;;;4.05;;
22924;SDS011;11628;51.072;3.712;2022-11-20T11:55:27;9.80;;;4.63;;
22924;SDS011;11628;51.072;3.712;2022-11-20T11:58:09;11.68;;;5.32;;
22924;SDS011;11628;51.072;3.712;2022-11-20T12:00:36;9.02;;;5.15;;
22924;SDS011;11628;51.072;3.712;2022-11-20T12:03:14;11.25;;;5.20;;
22924;SDS011;11628;51.072;3.712;2022-11-20T12:05:47;10.63;;;5.53;;
22924;SDS011;11628;51.072;3.712;2022-11-20T12:08:21;13.40;;;5.78;;
22924;SDS011;11628;51.072;3.712;2022-11-20T12:16:01;15.07;;;6.80;;
22924;SDS011;11628;51.072;3.712;2022-11-20T12:18:28;10.10;;;5.75;;
22924;SDS011;11628;51.072;3.712;2022-11-20T12:21:01;12.65;;;6.43;;
22924;SDS011;11628;51.072;3.712;2022-11-20T12:26:47;10.75;;;6.82;;
22924;SDS011;11628;51.072;3.712;2022-11-20T12:32:29;11.02;;;6.85;;
22924;SDS011;11628;51.072;3.712;2022-11-20T12:40:35;11.57;;;7.57;;
22924;SDS011;11628;51.072;3.712;2022-11-20T12:43:15;12.18;;;7.93;;
22924;SDS011;11628;51.072;3.712;2022-11-20T12:46:18;12.65;;;8.90;;
22924;SDS011;11628;51.072;3.712;2022-11-20T12:54:50;9.48;;;7.57;;
22924;SDS011;11628;51.072;3.712;2022-11-20T13:00:35;9.93;;;7.63;;
22924;SDS011;11628;51.072;3.712;2022-11-20T13:03:31;11.18;;;7.78;;
22924;SDS011;11628;51.072;3.712;2022-11-20T13:08:48;10.15;;;7.57;;
22924;SDS011;11628;51.072;3.712;2022-11-20T13:19:52;9.77;;;8.10;;
22924;SDS011;11628;51.072;3.712;2022-11-20T13:22:26;10.35;;;7.55;;
22924;SDS011;11628;51.072;3.712;2022-11-20T13:24:53;7.95;;;7.10;;
22924;SDS011;11628;51.072;3.712;2022-11-20T13:27:22;9.43;;;7.15;;
22924;SDS011;11628;51.072;3.712;2022-11-20T13:35:55;7.38;;;6.63;;
22924;SDS011;11628;51.072;3.712;2022-11-20T13:38:25;9.35;;;6.85;;
22924;SDS011;11628;51.072;3.712;2022-11-20T13:40:55;6.13;;;5.53;;
22924;SDS011;11628;51.072;3.712;2022-11-20T13:46:07;6.88;;;5.93;;
22924;SDS011;11628;51.072;3.712;2022-11-20T13:48:38;8.43;;;7.10;;
22924;SDS011;11628;51.072;3.712;2022-11-20T13:51:21;13.73;;;7.40;;
22924;SDS011;11628;51.072;3.712;2022-11-20T13:56:47;10.32;;;7.65;;
22924;SDS011;11628;51.072;3.712;2022-11-20T14:02:23;7.47;;;6.45;;
22924;SDS011;11628;51.072;3.712;2022-11-20T14:04:52;8.45;;;6.28;;
22924;SDS011;11628;51.072;3.712;2022-11-20T14:07:22;8.30;;;6.07;;
22924;SDS011;11628;51.072;3.712;2022-11-20T14:09:55;9.43;;;7.05;;
22924;SDS011;11628;51.072;3.712;2022-11-20T14:12:23;8.15;;;5.97;;
22924;SDS011;11628;51.072;3.712;2022-11-20T14:14:56;8.25;;;5.75;;
22924;SDS011;11628;51.072;3.712;2022-11-20T14:17:33;6.35;;;5.63;;
22924;SDS011;11628;51.072;3.712;2022-11-20T14:20:05;8.25;;;5.63;;
22924;SDS011;11628;51.072;3.712;2022-11-20T14:22:37;6.80;;;5.75;;
22924;SDS011;11628;51.072;3.712;2022-11-20T14:25:05;6.72;;;5.60;;
22924;SDS011;11628;51.072;3.712;2022-11-20T14:27:38;7.65;;;6.85;;
22924;SDS011;11628;51.072;3.712;2022-11-20T14:30:12;9.13;;;7.18;;
22924;SDS011;11628;51.072;3.712;2022-11-20T14:32:38;8.65;;;7.75;;
22924;SDS011;11628;51.072;3.712;2022-11-20T14:35:08;7.93;;;7.22;;
22924;SDS011;11628;51.072;3.712;2022-11-20T14:37:39;7.13;;;6.43;;
22924;SDS011;11628;51.072;3.712;2022-11-20T14:42:56;7.40;;;6.70;;
22924;SDS011;11628;51.072;3.712;2022-11-20T14:45:24;10.93;;;7.68;;
22924;SDS011;11628;51.072;3.712;2022-11-20T14:47:54;8.85;;;7.95;;
22924;SDS011;11628;51.072;3.712;2022-11-20T14:50:27;9.18;;;7.00;;
22924;SDS011;11628;51.072;3.712;2022-11-20T14:52:55;7.50;;;6.50;;
22924;SDS011;11628;51.072;3.712;2022-11-20T14:55:26;9.23;;;5.97;;
22924;SDS011;11628;51.072;3.712;2022-11-20T14:58:01;9.60;;;5.93;;
22924;SDS011;11628;51.072;3.712;2022-11-20T15:00:32;9.52;;;5.00;;
22924;SDS011;11628;51.072;3.712;2022-11-20T15:02:59;19.17;;;7.05;;
22924;SDS011;11628;51.072;3.712;2022-11-20T15:05:36;26.95;;;12.40;;
22924;SDS011;11628;51.072;3.712;2022-11-20T15:08:10;12.23;;;4.90;;
22924;SDS011;11628;51.072;3.712;2022-11-20T15:10:37;9.05;;;3.70;;
22924;SDS011;11628;51.072;3.712;2022-11-20T15:13:10;9.68;;;3.88;;
22924;SDS011;11628;51.072;3.712;2022-11-20T15:15:46;11.82;;;3.58;;
22924;SDS011;11628;51.072;3.712;2022-11-20T15:18:14;15.18;;;3.67;;
22924;SDS011;11628;51.072;3.712;2022-11-20T15:20:49;12.07;;;3.85;;
22924;SDS011;11628;51.072;3.712;2022-11-20T15:23:16;13.00;;;3.15;;
22924;SDS011;11628;51.072;3.712;2022-11-20T15:25:46;12.77;;;3.67;;
22924;SDS011;11628;51.072;3.712;2022-11-20T15:28:20;18.25;;;3.40;;
22924;SDS011;11628;51.072;3.712;2022-11-20T15:30:50;10.90;;;2.63;;
22924;SDS011;11628;51.072;3.712;2022-11-20T15:33:16;17.42;;;3.47;;
22924;SDS011;11628;51.072;3.712;2022-11-20T15:35:42;19.92;;;4.20;;
22924;SDS011;11628;51.072;3.712;2022-11-20T15:38:11;14.45;;;2.90;;
22924;SDS011;11628;51.072;3.712;2022-11-20T15:40:37;19.20;;;6.22;;
22924;SDS011;11628;51.072;3.712;2022-11-20T15:43:03;21.42;;;5.03;;
22924;SDS011;11628;51.072;3.712;2022-11-20T15:53:43;16.17;;;4.40;;
22924;SDS011;11628;51.072;3.712;2022-11-20T15:56:09;18.40;;;3.90;;
22924;SDS011;11628;51.072;3.712;2022-11-20T15:58:37;21.00;;;3.80;;
22924;SDS011;11628;51.072;3.712;2022-11-20T16:01:04;19.00;;;5.45;;
22924;SDS011;11628;51.072;3.712;2022-11-20T16:03:30;19.10;;;4.30;;
22924;SDS011;11628;51.072;3.712;2022-11-20T16:05:58;21.52;;;4.95;;
22924;SDS011;11628;51.072;3.712;2022-11-20T16:08:24;22.20;;;5.50;;
22924;SDS011;11628;51.072;3.712;2022-11-20T16:10:50;18.75;;;4.40;;
22924;SDS011;11628;51.072;3.712;2022-11-20T16:13:16;20.65;;;4.10;;
22924;SDS011;11628;51.072;3.712;2022-11-20T16:16:02;16.02;;;3.03;;
22924;SDS011;11628;51.072;3.712;2022-11-20T16:18:30;15.82;;;3.35;;
22924;SDS011;11628;51.072;3.712;2022-11-20T16:20:56;16.35;;;4.05;;
22924;SDS011;11628;51.072;3.712;2022-11-20T16:23:22;16.17;;;3.72;;
22924;SDS011;11628;51.072;3.712;2022-11-20T16:25:52;19.23;;;6.95;;
22924;SDS011;11628;51.072;3.712;2022-11-20T16:28:18;14.27;;;4.10;;
22924;SDS011;11628;51.072;3.712;2022-11-20T16:30:44;19.65;;;4.57;;
22924;SDS011;11628;51.072;3.712;2022-11-20T16:33:12;16.90;;;5.30;;